Time;durP1;ratioP1;P1;durP2;ratioP2;P2;SDS_P1;SDS_P2;PMS_P1;PMS_P2;Temp;Humidity;BMP_temperature;BMP_pressure;BME280_temperature;BME280_humidity;BME280_pressure;Samples;Min_cycle;Max_cycle;Signal;HPM_P1;HPM_P2
2021/03/12 00:00:26;;;;;;;17.83;10.93;;;51.60;2227.20;;;;;;5000591;28;20092;-72
2021/03/12 00:02:52;;;;;;;23.63;13.27;;;51.60;2227.20;;;;;;4999416;28;20033;-70
2021/03/12 00:05:18;;;;;;;20.65;12.48;;;51.60;2227.20;;;;;;5001473;28;20561;-72
2021/03/12 00:07:44;;;;;;;21.73;12.55;;;51.60;2227.20;;;;;;4998403;28;20468;-72
2021/03/12 00:10:16;;;;;;;22.02;12.88;;;51.60;2227.20;;;;;;5002942;28;21207;-72
2021/03/12 00:12:42;;;;;;;22.80;12.55;;;51.60;2227.20;;;;;;4995557;28;20061;-72
2021/03/12 00:15:11;;;;;;;19.00;12.05;;;51.60;2227.20;;;;;;4995155;28;20033;-73
2021/03/12 00:17:37;;;;;;;18.85;12.25;;;51.60;2227.20;;;;;;4999661;28;20042;-72
2021/03/12 00:20:07;;;;;;;25.63;14.75;;;51.50;2227.20;;;;;;4996724;28;20037;-72
2021/03/12 00:22:33;;;;;;;;;;;51.50;2227.20;;;;;;5001403;28;20018;-72
2021/03/12 00:24:59;;;;;;;22.70;13.60;;;51.40;2227.20;;;;;;4996182;28;19905;-72
2021/03/12 00:27:24;;;;;;;22.30;13.07;;;51.40;2227.20;;;;;;4996779;28;20071;-72
2021/03/12 00:29:50;;;;;;;20.50;12.68;;;51.30;2227.20;;;;;;5000499;28;20031;-72
2021/03/12 00:32:15;;;;;;;44.90;23.40;;;51.30;2227.20;;;;;;5008193;28;20034;-73
2021/03/12 00:34:41;;;;;;;21.48;13.93;;;51.30;2227.20;;;;;;5006915;28;20041;-72
2021/03/12 00:37:07;;;;;;;21.25;13.23;;;51.20;2227.20;;;;;;5011131;28;20139;-73
2021/03/12 00:39:33;;;;;;;24.75;15.25;;;51.20;2227.20;;;;;;5007952;28;20019;-77
2021/03/12 00:41:59;;;;;;;26.17;15.43;;;51.20;2227.20;;;;;;5010917;28;20029;-77
2021/03/12 00:44:25;;;;;;;29.13;16.23;;;26.50;2201.60;;;;;;5013049;28;20390;-75
2021/03/12 00:46:52;;;;;;;22.50;13.80;;;26.50;2201.60;;;;;;5013179;28;20221;-74
2021/03/12 00:49:18;;;;;;;23.05;14.55;;;26.50;2201.60;;;;;;5007308;28;20030;-74
2021/03/12 00:51:44;;;;;;;22.52;14.20;;;26.50;2201.60;;;;;;5012887;28;20097;-78
2021/03/12 00:54:10;;;;;;;25.25;13.85;;;26.50;2201.60;;;;;;5012924;28;20168;-73
2021/03/12 00:56:36;;;;;;;26.67;15.07;;;26.40;2201.60;;;;;;5013114;28;20030;-73
2021/03/12 00:59:01;;;;;;;26.40;14.57;;;26.40;2201.60;;;;;;5012734;28;20014;-72
2021/03/12 01:01:27;;;;;;;19.65;12.35;;;26.40;2201.60;;;;;;5005268;28;20049;-74
2021/03/12 01:03:53;;;;;;;23.98;14.77;;;26.30;2201.60;;;;;;5013156;28;20497;-72
2021/03/12 01:06:18;;;;;;;25.52;14.38;;;26.30;2201.60;;;;;;5012400;28;20029;-72
2021/03/12 01:08:44;;;;;;;26.60;14.43;;;26.20;2201.60;;;;;;5010128;28;20054;-73
2021/03/12 01:11:10;;;;;;;25.65;13.98;;;26.20;2201.60;;;;;;5010066;28;20072;-77
2021/03/12 01:13:36;;;;;;;23.83;13.15;;;26.20;2201.60;;;;;;5011983;28;20030;-73
2021/03/12 01:16:01;;;;;;;24.95;13.40;;;26.20;2201.60;;;;;;5012537;28;20061;-73
2021/03/12 01:18:27;;;;;;;22.65;13.75;;;26.20;2201.60;;;;;;5011980;28;20087;-73
2021/03/12 01:20:53;;;;;;;22.58;13.68;;;26.20;2201.60;;;;;;5012393;28;20178;-74
2021/03/12 01:23:18;;;;;;;20.08;12.98;;;26.20;2201.60;;;;;;5012138;28;20018;-73
2021/03/12 01:25:47;;;;;;;18.98;12.40;;;26.20;2201.60;;;;;;5012434;28;20430;-74
2021/03/12 01:28:13;;;;;;;20.15;12.38;;;26.20;2201.60;;;;;;5008226;28;20041;-73
2021/03/12 01:30:42;;;;;;;21.40;12.45;;;26.20;2201.60;;;;;;5007743;28;20030;-73
2021/03/12 01:33:11;;;;;;;23.30;12.85;;;26.20;2201.60;;;;;;5001126;28;20105;-74
2021/03/12 01:35:38;;;;;;;21.65;12.52;;;26.10;2201.60;;;;;;5007303;28;20037;-74
2021/03/12 01:38:05;;;;;;;19.88;11.75;;;26.10;2201.60;;;;;;5012518;28;20018;-73
2021/03/12 01:40:32;;;;;;;24.27;13.40;;;26.10;2201.60;;;;;;5011665;28;20193;-74
2021/03/12 01:42:59;;;;;;;21.38;13.30;;;26.10;2201.60;;;;;;5012133;28;20028;-73
2021/03/12 01:45:41;;;;;;;23.17;14.40;;;26.10;2201.60;;;;;;5012730;28;20032;-73
2021/03/12 01:48:10;;;;;;;21.40;13.25;;;26.00;2201.60;;;;;;5013260;28;20464;-73
2021/03/12 01:50:37;;;;;;;20.77;12.98;;;26.10;2201.60;;;;;;5013433;28;20037;-73
2021/03/12 01:53:07;;;;;;;20.27;13.98;;;26.10;2201.60;;;;;;5006827;28;20045;-73
2021/03/12 01:55:34;;;;;;;19.77;11.98;;;26.20;2201.60;;;;;;5004390;28;20459;-74
2021/03/12 01:58:02;;;;;;;22.75;14.48;;;26.20;2201.60;;;;;;5012519;28;20415;-73
2021/03/12 02:00:28;;;;;;;18.55;11.82;;;26.20;2201.60;;;;;;5012942;28;20030;-73
2021/03/12 02:02:56;;;;;;;22.40;13.93;;;26.20;2201.60;;;;;;5012934;28;20029;-73
2021/03/12 02:05:22;;;;;;;24.15;15.23;;;26.10;2201.60;;;;;;5013080;28;20044;-73
2021/03/12 02:07:47;;;;;;;20.08;12.75;;;26.10;2201.60;;;;;;5012699;28;20029;-73
2021/03/12 02:10:17;;;;;;;20.38;11.98;;;26.10;2201.60;;;;;;5012578;28;20021;-73
2021/03/12 02:13:22;;;;;;;21.55;12.25;;;26.10;2201.60;;;;;;5003402;28;20030;-73
2021/03/12 02:15:49;;;;;;;21.77;12.57;;;26.10;2201.60;;;;;;4998426;28;20406;-73
2021/03/12 02:18:37;;;;;;;23.23;12.70;;;26.20;2201.60;;;;;;5012357;28;20050;-73
2021/03/12 02:21:30;;;;;;;21.73;12.77;;;26.30;2201.60;;;;;;5012918;28;20088;-73
2021/03/12 02:24:11;;;;;;;21.00;12.38;;;26.40;2201.60;;;;;;5013041;28;20414;-74
2021/03/12 02:26:43;;;;;;;;;;;26.40;2201.60;;;;;;5013141;28;20022;-73
2021/03/12 02:29:21;;;;;;;23.52;13.60;;;26.50;2201.60;;;;;;5012442;28;19955;-74
2021/03/12 02:31:48;;;;;;;21.30;13.65;;;26.50;2201.60;;;;;;5007737;28;20050;-74
2021/03/12 02:34:17;;;;;;;21.02;13.02;;;51.20;2227.20;;;;;;5000616;28;20035;-73
2021/03/12 02:36:48;;;;;;;23.95;13.23;;;51.20;2227.20;;;;;;4997079;28;20479;-73
2021/03/12 02:39:18;;;;;;;22.52;13.70;;;51.20;2227.20;;;;;;5012275;28;20022;-74
2021/03/12 02:41:47;;;;;;;19.52;11.02;;;51.30;2227.20;;;;;;5012417;28;20045;-73
2021/03/12 02:44:13;;;;;;;17.15;11.02;;;51.30;2227.20;;;;;;5012299;28;20075;-74
2021/03/12 02:46:40;;;;;;;17.02;11.05;;;51.30;2227.20;;;;;;5012465;28;20052;-73
2021/03/12 02:49:06;;;;;;;20.55;11.75;;;51.30;2227.20;;;;;;5011832;28;20161;-73
2021/03/12 02:51:33;;;;;;;21.75;12.18;;;51.30;2227.20;;;;;;5011426;28;20057;-73
2021/03/12 02:53:59;;;;;;;18.55;11.85;;;51.30;2227.20;;;;;;5004048;28;20093;-74
2021/03/12 02:56:26;;;;;;;19.17;10.88;;;51.30;2227.20;;;;;;4992646;28;20022;-73
2021/03/12 02:58:54;;;;;;;21.05;13.55;;;51.30;2227.20;;;;;;4994118;28;20038;-73
2021/03/12 03:01:20;;;;;;;21.63;13.43;;;51.30;2227.20;;;;;;5012079;28;20014;-73
2021/03/12 03:03:47;;;;;;;19.13;11.57;;;51.40;2227.20;;;;;;5012328;28;20053;-74
2021/03/12 03:06:15;;;;;;;18.52;10.77;;;51.40;2227.20;;;;;;5011945;28;20479;-73
2021/03/12 03:08:42;;;;;;;18.85;11.10;;;51.40;2227.20;;;;;;5011801;28;20026;-73
2021/03/12 03:11:09;;;;;;;18.05;10.95;;;51.50;2227.20;;;;;;5011833;28;20105;-73
2021/03/12 03:13:37;;;;;;;16.45;10.48;;;51.60;2227.20;;;;;;5011734;28;20110;-73
2021/03/12 03:16:07;;;;;;;17.23;10.73;;;51.70;2227.20;;;;;;5006166;28;20050;-73
2021/03/12 03:18:36;;;;;;;19.80;11.70;;;51.80;2227.20;;;;;;4991808;28;20050;-73
2021/03/12 03:21:03;;;;;;;20.58;12.75;;;51.80;2227.20;;;;;;5007378;28;20018;-73
2021/03/12 03:23:29;;;;;;;18.67;11.95;;;51.80;2227.20;;;;;;5011384;28;20018;-74
2021/03/12 03:25:55;;;;;;;17.95;11.80;;;51.80;2227.20;;;;;;5011777;28;20125;-73
2021/03/12 03:28:21;;;;;;;20.95;12.07;;;51.90;2227.20;;;;;;5007344;28;20262;-74
2021/03/12 03:30:47;;;;;;;22.17;12.60;;;51.90;2227.20;;;;;;5001363;28;20030;-73
2021/03/12 03:33:13;;;;;;;19.80;11.13;;;52.00;2227.20;;;;;;4996212;28;20049;-73
2021/03/12 03:35:39;;;;;;;18.33;11.13;;;52.00;2227.20;;;;;;5011641;28;20029;-74
2021/03/12 03:38:04;;;;;;;18.25;10.30;;;52.00;2227.20;;;;;;5003372;28;20022;-73
2021/03/12 03:40:30;;;;;;;18.23;10.70;;;52.00;2227.20;;;;;;4999005;28;20087;-73
2021/03/12 03:42:58;;;;;;;18.30;11.18;;;52.00;2227.20;;;;;;5007442;28;20054;-74
2021/03/12 03:45:27;;;;;;;17.98;10.73;;;52.10;2227.20;;;;;;5011312;28;20025;-73
2021/03/12 03:47:55;;;;;;;17.98;10.98;;;52.00;2227.20;;;;;;5011471;28;20029;-74
2021/03/12 03:50:21;;;;;;;18.55;11.52;;;52.00;2227.20;;;;;;5010962;28;20057;-74
2021/03/12 03:52:47;;;;;;;18.30;11.40;;;52.00;2227.20;;;;;;5011434;28;20026;-74
2021/03/12 03:55:14;;;;;;;15.60;9.68;;;51.90;2227.20;;;;;;5010978;28;20034;-74
2021/03/12 03:57:41;;;;;;;16.08;9.65;;;51.90;2227.20;;;;;;5011684;28;20105;-73
2021/03/12 04:00:08;;;;;;;17.73;11.15;;;51.80;2227.20;;;;;;5009372;28;20097;-74
2021/03/12 04:02:34;;;;;;;17.50;11.20;;;51.80;2227.20;;;;;;4992856;28;20021;-73
2021/03/12 04:05:03;;;;;;;18.88;11.82;;;51.80;2227.20;;;;;;5001246;28;20041;-73
2021/03/12 04:07:29;;;;;;;19.08;11.43;;;51.80;2227.20;;;;;;4991434;28;20022;-73
2021/03/12 04:09:55;;;;;;;18.63;12.20;;;51.90;2227.20;;;;;;5002835;28;20047;-73
2021/03/12 04:12:23;;;;;;;17.08;11.30;;;51.80;2227.20;;;;;;5013626;28;20180;-73
2021/03/12 04:14:50;;;;;;;17.48;11.30;;;51.90;2227.20;;;;;;5014857;28;20041;-74
2021/03/12 04:17:16;;;;;;;18.35;11.63;;;51.90;2227.20;;;;;;5014837;28;20028;-73
2021/03/12 04:19:44;;;;;;;17.30;11.32;;;51.90;2227.20;;;;;;5014208;28;20034;-74
2021/03/12 04:22:11;;;;;;;21.35;11.82;;;51.80;2227.20;;;;;;5003963;28;20015;-73
2021/03/12 04:24:38;;;;;;;29.13;16.77;;;51.80;2227.20;;;;;;5010818;28;20125;-73
2021/03/12 04:27:05;;;;;;;23.75;14.40;;;51.80;2227.20;;;;;;4995575;28;20041;-73
2021/03/12 04:29:31;;;;;;;21.98;13.02;;;51.70;2227.20;;;;;;5007513;28;20124;-73
2021/03/12 04:31:57;;;;;;;22.73;13.38;;;51.70;2227.20;;;;;;5015103;28;20025;-73
2021/03/12 04:34:24;;;;;;;24.35;13.45;;;51.70;2227.20;;;;;;5014781;28;20121;-74
2021/03/12 04:36:51;;;;;;;24.15;13.50;;;51.70;2227.20;;;;;;5014705;28;20018;-74
2021/03/12 04:39:18;;;;;;;25.88;13.00;;;51.70;2227.20;;;;;;5014397;28;20053;-74
2021/03/12 04:41:46;;;;;;;20.20;12.63;;;51.80;2227.20;;;;;;5006440;28;20034;-73
2021/03/12 04:44:12;;;;;;;24.40;12.48;;;51.80;2227.20;;;;;;4995111;28;20034;-73
2021/03/12 04:46:39;;;;;;;23.10;13.20;;;51.80;2227.20;;;;;;5012443;28;20021;-73
2021/03/12 04:49:10;;;;;;;23.33;12.45;;;51.80;2227.20;;;;;;5014214;28;20475;-73
2021/03/12 04:51:37;;;;;;;20.55;12.68;;;51.80;2227.20;;;;;;5014675;28;20080;-73
2021/03/12 04:54:08;;;;;;;29.75;15.35;;;51.80;2227.20;;;;;;5014216;28;20072;-73
2021/03/12 04:56:38;;;;;;;22.60;13.02;;;51.80;2227.20;;;;;;5015018;28;20026;-73
2021/03/12 04:59:05;;;;;;;29.77;16.45;;;51.80;2227.20;;;;;;5013923;28;20093;-73
2021/03/12 05:01:33;;;;;;;36.28;18.95;;;51.80;2227.20;;;;;;5005171;28;20222;-73
2021/03/12 05:04:03;;;;;;;27.67;15.63;;;51.70;2227.20;;;;;;4999051;28;20021;-73
2021/03/12 05:06:30;;;;;;;25.55;14.10;;;51.70;2227.20;;;;;;4994578;28;20500;-73
2021/03/12 05:08:56;;;;;;;26.05;14.75;;;51.70;2227.20;;;;;;5008109;28;20061;-73
2021/03/12 05:11:22;;;;;;;23.63;13.25;;;51.80;2227.20;;;;;;5014096;28;20391;-74
2021/03/12 05:13:50;;;;;;;21.77;12.82;;;51.80;2227.20;;;;;;5014018;28;20034;-74
2021/03/12 05:16:17;;;;;;;22.67;13.13;;;51.80;2227.20;;;;;;5014136;28;20014;-73
2021/03/12 05:18:42;;;;;;;21.42;12.57;;;51.90;2227.20;;;;;;5013767;28;20136;-74
2021/03/12 05:21:08;;;;;;;31.50;14.80;;;52.00;2227.20;;;;;;5013967;28;20093;-73
2021/03/12 05:23:34;;;;;;;23.42;12.60;;;52.00;2227.20;;;;;;5011969;28;20132;-74
2021/03/12 05:26:01;;;;;;;23.75;14.45;;;52.10;2227.20;;;;;;5000434;28;20053;-73
2021/03/12 05:28:27;;;;;;;24.45;14.57;;;76.80;2227.20;;;;;;5002598;28;20368;-74
2021/03/12 05:30:52;;;;;;;23.70;12.70;;;76.90;2227.20;;;;;;5003133;28;20479;-74
2021/03/12 05:33:19;;;;;;;25.33;14.38;;;76.90;2227.20;;;;;;4998248;28;20128;-73
2021/03/12 05:35:45;;;;;;;24.95;15.02;;;76.90;2227.20;;;;;;5013698;28;20030;-74
2021/03/12 05:38:10;;;;;;;30.02;16.58;;;77.00;2227.20;;;;;;5013566;28;20022;-74
2021/03/12 05:40:36;;;;;;;26.05;14.85;;;77.10;2227.20;;;;;;5013326;28;20553;-73
2021/03/12 05:43:03;;;;;;;27.00;15.48;;;77.20;2227.20;;;;;;5013672;28;20545;-73
2021/03/12 05:45:28;;;;;;;24.90;14.43;;;77.20;2227.20;;;;;;5002436;28;20018;-73
2021/03/12 05:47:55;;;;;;;21.73;13.10;;;77.40;2227.20;;;;;;4993910;28;20033;-73
2021/03/12 05:50:21;;;;;;;22.60;13.27;;;77.50;2227.20;;;;;;5007099;28;20436;-73
2021/03/12 05:52:47;;;;;;;26.08;14.85;;;77.50;2227.20;;;;;;5013332;28;20021;-74
2021/03/12 05:55:15;;;;;;;30.63;16.92;;;77.70;2227.20;;;;;;5012934;28;20072;-73
2021/03/12 05:57:41;;;;;;;31.92;18.38;;;102.50;2227.20;;;;;;5013293;28;20498;-73
2021/03/12 06:00:08;;;;;;;44.03;22.92;;;102.60;2201.60;;;;;;5012851;28;20354;-73
2021/03/12 06:02:33;;;;;;;47.33;24.38;;;102.50;2227.20;;;;;;5012882;28;20033;-73
2021/03/12 06:04:59;;;;;;;36.20;19.27;;;102.50;2227.20;;;;;;5010973;28;20022;-73
2021/03/12 06:07:25;;;;;;;24.85;14.80;;;102.50;2227.20;;;;;;5006198;28;20083;-73
2021/03/12 06:09:51;;;;;;;25.20;15.02;;;102.60;2227.20;;;;;;5010372;28;20044;-74
2021/03/12 06:12:17;;;;;;;25.52;16.40;;;102.60;2227.20;;;;;;5013356;28;20026;-73
2021/03/12 06:14:53;;;;;;;24.33;15.27;;;102.70;2227.20;;;;;;5011611;28;20099;-73
2021/03/12 06:17:43;;;;;;;23.02;14.52;;;102.70;2201.60;;;;;;5012943;28;20041;-73
2021/03/12 06:20:16;;;;;;;24.65;14.85;;;103.10;2150.40;;;;;;5012551;28;20026;-73
2021/03/12 06:22:55;;;;;;;24.63;15.98;;;128.30;2099.20;;;;;;5012984;28;20022;-73
2021/03/12 06:25:26;;;;;;;25.67;15.43;;;153.80;1996.80;;;;;;5012753;28;20512;-73
2021/03/12 06:27:54;;;;;;;30.83;17.50;;;154.50;1894.40;;;;;;4995197;28;20038;-74
2021/03/12 06:30:22;;;;;;;43.80;22.08;;;179.40;1868.80;;;;;;4992694;28;20069;-74
2021/03/12 06:32:50;;;;;;;32.70;18.58;;;180.10;1817.60;;;;;;5004615;28;20034;-74
2021/03/12 06:35:19;;;;;;;25.83;15.70;;;205.10;1740.80;;;;;;5011381;28;20100;-74
2021/03/12 06:37:46;;;;;;;28.52;16.40;;;205.40;1689.60;;;;;;5012749;28;20018;-75
2021/03/12 06:40:16;;;;;;;18.00;12.27;;;205.50;1664.00;;;;;;5011852;28;20018;-74
2021/03/12 06:43:00;;;;;;;19.27;11.67;;;205.30;1689.60;;;;;;5012735;28;20022;-74
2021/03/12 06:45:27;;;;;;;15.93;11.32;;;205.40;1715.20;;;;;;5011667;28;20033;-73
2021/03/12 06:47:52;;;;;;;14.88;9.93;;;205.40;1740.80;;;;;;4999954;28;20030;-73
2021/03/12 06:50:19;;;;;;;15.40;10.43;;;205.30;1740.80;;;;;;5005283;28;20096;-75
2021/03/12 06:52:45;;;;;;;16.25;10.95;;;204.90;1766.40;;;;;;5007260;28;20033;-74
2021/03/12 06:55:11;;;;;;;16.05;9.48;;;180.10;1817.60;;;;;;5012035;28;20075;-74
2021/03/12 06:57:36;;;;;;;14.98;9.48;;;180.00;1792.00;;;;;;5012316;28;20385;-74
2021/03/12 07:00:07;;;;;;;12.25;8.70;;;179.70;1843.20;;;;;;5011923;28;20022;-74
2021/03/12 07:02:34;;;;;;;;;;;179.40;1868.80;;;;;;5012422;28;20029;-74
2021/03/12 07:04:59;;;;;;;24.95;14.38;;;154.40;1894.40;;;;;;5012218;28;19909;-74
2021/03/12 07:07:38;;;;;;;33.20;17.10;;;154.10;1945.60;;;;;;5010359;28;20041;-74
2021/03/12 07:10:06;;;;;;;37.00;17.33;;;154.10;1971.20;;;;;;5001271;28;20022;-74
2021/03/12 07:12:52;;;;;;;24.73;13.25;;;154.10;1971.20;;;;;;4992208;28;20117;-74
2021/03/12 07:15:19;;;;;;;22.27;12.77;;;154.00;1996.80;;;;;;4999735;28;20097;-76
2021/03/12 07:17:46;;;;;;;84.90;42.92;;;153.80;1996.80;;;;;;5011780;28;20038;-73
2021/03/12 07:20:15;;;;;;;13.60;8.55;;;153.80;2022.40;;;;;;4997719;28;20026;-73
2021/03/12 07:22:45;;;;;;;13.25;8.90;;;153.70;2022.40;;;;;;5011784;28;20022;-73
2021/03/12 07:25:11;;;;;;;12.40;8.25;;;153.60;2048.00;;;;;;5011641;28;20022;-74
2021/03/12 07:27:40;;;;;;;12.88;8.98;;;153.60;2048.00;;;;;;5008694;28;20034;-74
2021/03/12 07:30:08;;;;;;;15.18;8.82;;;128.90;2073.60;;;;;;5002584;28;20026;-74
2021/03/12 07:32:36;;;;;;;17.42;10.13;;;128.80;2099.20;;;;;;4991839;28;20476;-74
2021/03/12 07:35:03;;;;;;;20.10;11.68;;;128.80;2099.20;;;;;;5009872;28;20066;-74
2021/03/12 07:37:33;;;;;;;18.10;11.48;;;128.90;2099.20;;;;;;5011472;28;20479;-74
2021/03/12 07:40:00;;;;;;;13.82;9.18;;;153.60;2099.20;;;;;;5011266;28;20021;-78
2021/03/12 07:42:28;;;;;;;21.02;11.30;;;153.80;2099.20;;;;;;5011643;28;20380;-73
2021/03/12 07:44:55;;;;;;;28.13;16.13;;;153.90;2099.20;;;;;;5011364;28;20114;-74
2021/03/12 07:47:22;;;;;;;16.13;10.20;;;154.00;2073.60;;;;;;5011246;28;20501;-74
2021/03/12 07:49:48;;;;;;;18.30;10.50;;;154.00;2099.20;;;;;;5003736;28;20065;-74
2021/03/12 07:52:15;;;;;;;15.40;10.07;;;154.00;2073.60;;;;;;4993738;28;20395;-74
2021/03/12 07:54:41;;;;;;;16.60;10.50;;;154.10;2099.20;;;;;;5001634;28;20037;-74
2021/03/12 07:57:08;;;;;;;32.00;17.17;;;154.00;2099.20;;;;;;5009830;28;20425;-74
2021/03/12 07:59:46;;;;;;;31.65;16.75;;;154.00;2073.60;;;;;;5011320;28;20022;-74
2021/03/12 08:02:15;;;;;;;36.08;18.17;;;154.30;2022.40;;;;;;5010858;28;20053;-74
2021/03/12 08:04:42;;;;;;;20.63;12.18;;;154.50;2022.40;;;;;;5011346;28;20108;-74
2021/03/12 08:07:17;;;;;;;21.23;12.52;;;179.30;1971.20;;;;;;5011271;28;20446;-74
2021/03/12 08:09:53;;;;;;;15.93;10.68;;;179.50;1996.80;;;;;;4999367;28;20023;-74
2021/03/12 08:12:33;;;;;;;15.40;9.82;;;179.60;1894.40;;;;;;4991528;28;20117;-74
2021/03/12 08:15:16;;;;;;;16.67;10.50;;;180.00;1843.20;;;;;;5009068;28;20025;-74
2021/03/12 08:17:42;;;;;;;77.25;38.78;;;204.80;1792.00;;;;;;5004731;28;20124;-74
2021/03/12 08:20:36;;;;;;;31.17;17.73;;;204.90;1766.40;;;;;;5009441;28;20022;-74
2021/03/12 08:23:03;;;;;;;136.95;61.35;;;204.90;1766.40;;;;;;5010832;28;20037;-74
2021/03/12 08:25:50;;;;;;;43.08;24.35;;;205.20;1715.20;;;;;;5011056;28;20037;-74
2021/03/12 08:28:19;;;;;;;24.35;14.80;;;205.20;1740.80;;;;;;5009518;28;20034;-74
2021/03/12 08:30:46;;;;;;;14.82;9.93;;;205.00;1766.40;;;;;;4996150;28;20022;-74
2021/03/12 08:33:32;;;;;;;11.82;7.65;;;205.20;1766.40;;;;;;4991091;28;20495;-74
2021/03/12 08:35:58;;;;;;;12.52;7.90;;;205.10;1715.20;;;;;;4998646;28;20034;-74
2021/03/12 08:38:26;;;;;;;14.27;9.15;;;205.10;1740.80;;;;;;4995318;28;20380;-74
2021/03/12 08:40:59;;;;;;;11.57;8.35;;;205.10;1766.40;;;;;;5002811;28;20018;-75
2021/03/12 08:43:28;;;;;;;19.52;14.20;;;205.10;1766.40;;;;;;5010907;28;20029;-74
2021/03/12 08:45:57;;;;;;;13.55;9.15;;;205.20;1766.40;;;;;;5011157;28;20025;-75
2021/03/12 08:48:23;;;;;;;12.48;8.70;;;205.00;1792.00;;;;;;5010191;28;20121;-75
2021/03/12 08:51:06;;;;;;;11.90;8.20;;;204.90;1766.40;;;;;;4998571;28;20527;-75
2021/03/12 08:53:34;;;;;;;14.90;9.30;;;204.80;1766.40;;;;;;4990803;28;20030;-75
2021/03/12 08:56:01;;;;;;;11.20;7.22;;;180.10;1766.40;;;;;;4997733;28;20084;-74
2021/03/12 08:58:28;;;;;;;11.55;7.57;;;180.10;1740.80;;;;;;5013054;28;20095;-74
2021/03/12 09:00:59;;;;;;;10.63;7.15;;;180.10;1740.80;;;;;;5014142;28;20014;-74
2021/03/12 09:03:27;;;;;;;9.68;7.65;;;180.10;1766.40;;;;;;5014176;28;20474;-74
2021/03/12 09:06:00;;;;;;;12.13;8.70;;;179.90;1740.80;;;;;;5014259;28;20033;-74
2021/03/12 09:08:27;;;;;;;12.57;8.75;;;179.90;1766.40;;;;;;5013773;28;20080;-74
2021/03/12 09:10:54;;;;;;;12.18;7.70;;;179.90;1766.40;;;;;;5009157;28;20022;-74
2021/03/12 09:13:22;;;;;;;15.20;9.30;;;179.70;1766.40;;;;;;4999029;28;20036;-74
2021/03/12 09:15:49;;;;;;;11.13;7.80;;;179.80;1766.40;;;;;;5010325;28;20026;-75
2021/03/12 09:18:17;;;;;;;22.95;14.45;;;179.90;1740.80;;;;;;5013514;28;20214;-74
2021/03/12 09:20:47;;;;;;;16.13;10.90;;;180.00;1792.00;;;;;;5013768;28;20029;-74
2021/03/12 09:23:13;;;;;;;12.60;8.55;;;180.10;1792.00;;;;;;5003996;28;20502;-74
2021/03/12 09:25:39;;;;;;;15.52;13.38;;;180.00;1766.40;;;;;;5010260;28;20037;-74
2021/03/12 09:28:08;;;;;;;13.05;8.90;;;180.10;1766.40;;;;;;5000897;28;20042;-75
2021/03/12 09:30:52;;;;;;;16.75;10.32;;;180.10;1792.00;;;;;;5007451;28;20022;-73
2021/03/12 09:33:38;;;;;;;13.57;8.90;;;180.10;1792.00;;;;;;5002784;28;20494;-73
2021/03/12 09:36:21;;;;;;;12.95;8.45;;;204.90;1740.80;;;;;;5005298;28;20026;-73
2021/03/12 09:38:47;;;;;;;14.02;8.90;;;204.90;1766.40;;;;;;5013114;28;20652;-74
2021/03/12 09:41:22;;;;;;;11.70;8.40;;;205.10;1740.80;;;;;;5011322;28;20037;-73
2021/03/12 09:44:16;;;;;;;12.32;8.15;;;205.20;1740.80;;;;;;5010742;28;20022;-75
2021/03/12 09:46:53;;;;;;;13.93;9.20;;;205.20;1740.80;;;;;;4999804;28;20100;-75
2021/03/12 09:49:24;;;;;;;14.65;8.80;;;205.10;1740.80;;;;;;5012816;28;20463;-73
2021/03/12 09:51:56;;;;;;;12.82;8.10;;;205.20;1740.80;;;;;;5009095;28;20164;-73
2021/03/12 09:54:29;;;;;;;14.07;9.57;;;205.10;1740.80;;;;;;5008334;28;20113;-74
2021/03/12 09:56:56;;;;;;;14.07;9.45;;;205.20;1766.40;;;;;;5012690;28;20014;-74
2021/03/12 09:59:28;;;;;;;12.95;9.27;;;205.20;1766.40;;;;;;5012621;28;20026;-75
2021/03/12 10:02:00;;;;;;;17.05;9.98;;;205.10;1792.00;;;;;;5009770;28;20022;-74
2021/03/12 10:04:36;;;;;;;15.63;9.73;;;204.90;1792.00;;;;;;5001320;28;20153;-73
2021/03/12 10:07:15;;;;;;;17.23;11.40;;;204.90;1792.00;;;;;;5004440;28;20053;-73
2021/03/12 10:09:47;;;;;;;21.73;14.20;;;205.00;1792.00;;;;;;5007310;28;20052;-74
2021/03/12 10:12:24;;;;;;;16.42;10.32;;;204.90;1792.00;;;;;;5006239;28;20475;-74
2021/03/12 10:14:50;;;;;;;18.48;11.63;;;204.80;1817.60;;;;;;5007157;28;20506;-74
2021/03/12 10:17:26;;;;;;;16.33;11.02;;;204.90;1792.00;;;;;;5009196;28;20093;-73
2021/03/12 10:20:02;;;;;;;19.90;13.00;;;204.90;1792.00;;;;;;5011284;28;20076;-74
2021/03/12 10:22:39;;;;;;;20.45;13.80;;;204.90;1817.60;;;;;;5011898;28;20379;-74
2021/03/12 10:25:15;;;;;;;18.00;10.98;;;205.10;1817.60;;;;;;5011967;28;20025;-74
2021/03/12 10:27:41;;;;;;;14.13;10.02;;;205.20;1792.00;;;;;;5012328;28;20026;-74
2021/03/12 10:30:07;;;;;;;14.98;9.80;;;205.40;1792.00;;;;;;5011404;28;20064;-74
2021/03/12 10:32:37;;;;;;;16.92;11.32;;;205.30;1792.00;;;;;;5008493;28;20036;-74
2021/03/12 10:35:03;;;;;;;16.77;11.27;;;205.40;1792.00;;;;;;5005111;28;20112;-73
2021/03/12 10:37:33;;;;;;;17.48;10.77;;;205.50;1817.60;;;;;;5010315;28;20386;-73
2021/03/12 10:39:59;;;;;;;20.30;14.18;;;205.50;1792.00;;;;;;5011268;28;20018;-73
2021/03/12 10:42:29;;;;;;;24.52;19.27;;;205.70;1792.00;;;;;;5007108;28;20495;-73
2021/03/12 10:45:02;;;;;;;20.38;15.27;;;205.70;1766.40;;;;;;5009486;28;20032;-73
2021/03/12 10:47:28;;;;;;;16.38;11.27;;;230.40;1740.80;;;;;;5004767;28;20048;-73
2021/03/12 10:49:54;;;;;;;14.82;10.00;;;205.70;1740.80;;;;;;5010180;28;20030;-73
2021/03/12 10:52:26;;;;;;;15.38;10.88;;;205.70;1740.80;;;;;;5009711;28;20446;-73
2021/03/12 10:54:53;;;;;;;15.05;10.13;;;230.50;1740.80;;;;;;5007714;28;20028;-73
2021/03/12 10:57:48;;;;;;;14.10;9.57;;;230.40;1766.40;;;;;;5006907;28;20069;-73
2021/03/12 11:00:21;;;;;;;14.73;9.77;;;230.40;1740.80;;;;;;5008424;28;20559;-73
2021/03/12 11:02:47;;;;;;;15.40;9.85;;;230.50;1715.20;;;;;;5006251;28;20018;-73
2021/03/12 11:05:14;;;;;;;39.67;22.95;;;230.60;1715.20;;;;;;4999575;28;20424;-74
2021/03/12 11:07:41;;;;;;;13.25;9.32;;;230.60;1715.20;;;;;;5008927;28;20046;-74
2021/03/12 11:10:08;;;;;;;15.75;11.30;;;230.60;1689.60;;;;;;5003937;28;20058;-74
2021/03/12 11:12:43;;;;;;;14.25;10.25;;;230.80;1715.20;;;;;;5003755;28;20101;-74
2021/03/12 11:15:12;;;;;;;14.43;10.35;;;231.00;1664.00;;;;;;5001055;28;20069;-74
2021/03/12 11:17:41;;;;;;;14.80;9.75;;;230.90;1689.60;;;;;;5002903;28;20119;-73
2021/03/12 11:20:07;;;;;;;17.45;13.15;;;231.00;1664.00;;;;;;5001267;28;20019;-73
2021/03/12 11:22:34;;;;;;;13.95;9.40;;;231.10;1664.00;;;;;;5006899;28;20024;-73
2021/03/12 11:25:02;;;;;;;13.02;9.48;;;231.00;1664.00;;;;;;5006154;28;20072;-74
2021/03/12 11:27:27;;;;;;;13.05;9.00;;;231.00;1689.60;;;;;;5010034;28;20033;-73
2021/03/12 11:29:54;;;;;;;15.27;9.88;;;231.00;1664.00;;;;;;5005561;28;20033;-73
2021/03/12 11:32:20;;;;;;;14.35;10.10;;;230.90;1664.00;;;;;;5007985;28;20100;-73
2021/03/12 11:34:46;;;;;;;16.55;9.60;;;230.70;1664.00;;;;;;5002413;28;20407;-73
2021/03/12 11:37:12;;;;;;;11.73;8.32;;;230.70;1689.60;;;;;;5005543;28;20023;-72
2021/03/12 11:39:38;;;;;;;13.52;9.02;;;230.90;1664.00;;;;;;5003366;28;20095;-73
2021/03/12 11:42:04;;;;;;;17.23;10.57;;;231.30;1664.00;;;;;;5003722;28;20430;-74
2021/03/12 11:44:31;;;;;;;15.85;9.63;;;256.50;1612.80;;;;;;5007479;28;20038;-74
2021/03/12 11:46:57;;;;;;;15.23;12.32;;;256.50;1587.20;;;;;;5004773;28;20105;-72
2021/03/12 11:49:22;;;;;;;24.10;15.35;;;256.70;1561.60;;;;;;5009655;28;20133;-73
2021/03/12 11:51:52;;;;;;;15.88;10.88;;;256.60;1587.20;;;;;;5010778;28;20048;-73
2021/03/12 11:54:18;;;;;;;16.48;11.65;;;256.30;1587.20;;;;;;5009443;28;20025;-72
2021/03/12 11:56:44;;;;;;;18.27;12.88;;;256.20;1587.20;;;;;;5001249;28;20032;-72
2021/03/12 11:59:11;;;;;;;23.90;14.88;;;256.20;1612.80;;;;;;5006118;28;20026;-73
2021/03/12 12:01:37;;;;;;;20.80;12.45;;;256.40;1587.20;;;;;;5010902;28;20034;-73
2021/03/12 12:04:03;;;;;;;22.83;15.13;;;256.30;1587.20;;;;;;5010729;28;20018;-73
2021/03/12 12:06:29;;;;;;;25.55;13.35;;;256.20;1587.20;;;;;;5011026;28;20045;-73
2021/03/12 12:08:55;;;;;;;15.75;11.43;;;256.50;1587.20;;;;;;5005713;28;20053;-74
2021/03/12 12:11:21;;;;;;;17.25;11.00;;;256.20;1587.20;;;;;;5010694;28;20049;-73
2021/03/12 12:13:47;;;;;;;18.30;11.70;;;256.10;1561.60;;;;;;5010544;28;20029;-72